createdAt,value
2023-05-18T00:01:58.332Z,13.32
2023-05-18T00:04:25.404Z,11.70
2023-05-18T00:06:56.132Z,11.38
2023-05-18T00:09:23.822Z,11.45
2023-05-18T00:11:50.382Z,9.35
2023-05-18T00:14:16.777Z,13.73
2023-05-18T00:16:43.202Z,12.63
2023-05-18T00:19:09.659Z,15.73
2023-05-18T00:21:35.982Z,14.32
2023-05-18T00:24:03.610Z,12.18
2023-05-18T00:26:29.944Z,11.23
2023-05-18T00:28:56.293Z,14.02
2023-05-18T00:31:22.678Z,12.68
2023-05-18T00:33:49.021Z,18.52
2023-05-18T00:36:15.414Z,15.20
2023-05-18T00:38:41.754Z,14.50
2023-05-18T00:41:08.723Z,13.60
2023-05-18T00:43:35.347Z,13.35
2023-05-18T00:46:01.902Z,12.32
2023-05-18T00:48:28.293Z,10.55
2023-05-18T00:50:54.727Z,14.75
2023-05-18T00:53:21.521Z,11.20
2023-05-18T00:55:47.883Z,10.93
2023-05-18T00:58:15.657Z,14.88
2023-05-18T01:00:42.075Z,12.55
2023-05-18T01:03:10.609Z,9.10
2023-05-18T01:05:37.263Z,12.57
2023-05-18T01:08:03.813Z,15.75
2023-05-18T01:10:33.450Z,11.30
2023-05-18T01:13:05.136Z,16.00
2023-05-18T01:15:35.741Z,13.80
2023-05-18T01:18:14.359Z,14.18
2023-05-18T01:20:46.250Z,13.50
2023-05-18T01:23:54.311Z,13.45
2023-05-18T01:26:24.361Z,11.13
2023-05-18T01:28:51.735Z,9.40
2023-05-18T01:31:18.835Z,12.60
2023-05-18T01:33:46.053Z,13.48
2023-05-18T01:36:12.574Z,13.73
2023-05-18T01:38:41.683Z,11.95
2023-05-18T01:41:14.454Z,14.35
2023-05-18T01:43:47.646Z,11.25
2023-05-18T01:46:21.373Z,12.38
2023-05-18T01:48:53.934Z,13.88
2023-05-18T01:51:25.580Z,16.20
2023-05-18T01:53:59.385Z,15.80
2023-05-18T01:56:27.071Z,10.68
2023-05-18T01:58:54.205Z,11.73
2023-05-18T02:01:22.140Z,13.63
2023-05-18T02:03:48.670Z,14.00
2023-05-18T02:06:15.341Z,13.55
2023-05-18T02:08:41.909Z,15.45
2023-05-18T02:11:08.291Z,16.45
2023-05-18T02:13:34.728Z,24.15
2023-05-18T02:16:03.279Z,14.00
2023-05-18T02:18:33.417Z,19.38
2023-05-18T02:21:00.410Z,16.55
2023-05-18T02:23:27.198Z,11.77
2023-05-18T02:25:54.811Z,16.40
2023-05-18T02:28:21.226Z,16.38
2023-05-18T02:30:47.850Z,15.30
2023-05-18T02:33:14.898Z,21.77
2023-05-18T02:35:41.199Z,18.52
2023-05-18T02:38:07.572Z,22.65
2023-05-18T02:40:34.003Z,16.98
2023-05-18T02:43:00.584Z,21.02
2023-05-18T02:45:27.181Z,14.23
2023-05-18T02:47:53.703Z,20.38
2023-05-18T02:50:20.841Z,18.85
2023-05-18T02:52:48.999Z,20.88
2023-05-18T02:55:16.592Z,16.65
2023-05-18T02:57:46.204Z,22.83
2023-05-18T03:00:15.853Z,18.92
2023-05-18T03:02:43.486Z,16.98
2023-05-18T03:05:09.982Z,19.80
2023-05-18T03:07:37.194Z,16.63
2023-05-18T03:10:04.041Z,21.02
2023-05-18T03:12:30.385Z,21.75
2023-05-18T03:14:56.878Z,16.75
2023-05-18T03:17:23.507Z,18.40
2023-05-18T03:19:50.693Z,19.20
2023-05-18T03:22:17.083Z,19.80
2023-05-18T03:24:44.145Z,16.20
2023-05-18T03:27:12.256Z,17.90
2023-05-18T03:29:38.588Z,20.73
2023-05-18T03:32:05.706Z,16.02
2023-05-18T03:34:32.022Z,22.45
2023-05-18T03:36:59.134Z,23.08
2023-05-18T03:39:25.563Z,15.52
2023-05-18T03:41:52.731Z,14.00
2023-05-18T03:44:19.110Z,17.40
2023-05-18T03:46:45.559Z,15.95
2023-05-18T03:49:12.006Z,16.67
2023-05-18T03:51:38.553Z,19.25
2023-05-18T03:54:05.059Z,14.98
2023-05-18T03:56:31.404Z,15.82
2023-05-18T03:58:58.548Z,17.80
2023-05-18T04:01:24.962Z,15.00
2023-05-18T04:03:55.558Z,15.82
2023-05-18T04:06:23.050Z,18.92
2023-05-18T04:08:49.535Z,18.33
2023-05-18T04:11:15.889Z,16.27
2023-05-18T04:13:42.563Z,18.38
2023-05-18T04:16:12.569Z,18.83
2023-05-18T04:18:38.964Z,18.45
2023-05-18T04:21:06.017Z,19.55
2023-05-18T04:23:38.150Z,18.30
2023-05-18T04:26:05.534Z,18.13
2023-05-18T04:28:32.352Z,18.13
2023-05-18T04:30:59.198Z,24.70
2023-05-18T04:33:26.229Z,18.73
2023-05-18T04:35:54.359Z,17.65
2023-05-18T04:38:22.482Z,16.90
2023-05-18T04:40:49.371Z,18.70
2023-05-18T04:43:17.803Z,18.35
2023-05-18T04:45:45.763Z,19.83
2023-05-18T04:48:13.512Z,17.92
2023-05-18T04:50:41.293Z,19.40
2023-05-18T04:53:08.364Z,25.80
2023-05-18T04:55:34.948Z,28.17
2023-05-18T04:58:02.422Z,24.83
2023-05-18T05:00:30.173Z,22.50
2023-05-18T05:02:58.028Z,25.13
2023-05-18T05:05:25.003Z,22.42
2023-05-18T05:07:52.388Z,19.77
2023-05-18T05:10:19.538Z,25.15
2023-05-18T05:12:48.615Z,23.48
2023-05-18T05:15:15.956Z,22.83
2023-05-18T05:17:42.322Z,31.02
2023-05-18T05:20:09.332Z,23.42
2023-05-18T05:22:35.724Z,21.38
2023-05-18T05:25:04.508Z,19.95
2023-05-18T05:27:32.360Z,17.83
2023-05-18T05:29:58.714Z,18.02
2023-05-18T05:32:25.052Z,15.77
2023-05-18T05:34:51.404Z,18.70
2023-05-18T05:37:18.320Z,18.00
2023-05-18T05:39:45.428Z,14.75
2023-05-18T05:42:12.417Z,16.75
2023-05-18T05:44:40.115Z,14.05
2023-05-18T05:47:07.265Z,15.27
2023-05-18T05:49:34.158Z,12.88
2023-05-18T05:52:01.043Z,15.20
2023-05-18T05:54:27.421Z,14.02
2023-05-18T05:56:53.802Z,12.43
2023-05-18T05:59:21.656Z,15.25
2023-05-18T06:01:48.106Z,11.95
2023-05-18T06:04:15.220Z,14.90
2023-05-18T06:06:47.684Z,14.77
2023-05-18T06:09:14.042Z,11.73
2023-05-18T06:11:40.416Z,13.98
2023-05-18T06:14:06.748Z,11.13
2023-05-18T06:16:33.750Z,15.07
2023-05-18T06:19:00.233Z,12.57
2023-05-18T06:21:26.642Z,12.85
2023-05-18T06:23:52.990Z,13.88
2023-05-18T06:26:19.369Z,13.57
2023-05-18T06:28:45.814Z,13.73
2023-05-18T06:31:12.495Z,11.85
2023-05-18T06:33:39.542Z,12.07
2023-05-18T06:36:06.160Z,12.68
2023-05-18T06:38:32.614Z,13.60
2023-05-18T06:40:58.940Z,11.70
2023-05-18T06:43:27.558Z,11.60
2023-05-18T06:45:54.187Z,15.25
2023-05-18T06:48:21.829Z,12.88
2023-05-18T06:50:48.814Z,11.00
2023-05-18T06:53:15.125Z,14.30
2023-05-18T06:55:41.504Z,11.63
2023-05-18T06:58:07.876Z,12.70
2023-05-18T07:00:34.263Z,15.02
2023-05-18T07:03:01.169Z,13.13
2023-05-18T07:05:27.791Z,13.45
2023-05-18T07:07:54.825Z,12.25
2023-05-18T07:10:22.098Z,11.15
2023-05-18T07:12:48.444Z,13.27
2023-05-18T07:15:14.992Z,13.05
2023-05-18T07:17:41.650Z,12.15
2023-05-18T07:20:09.509Z,10.70
2023-05-18T07:22:35.878Z,11.75
2023-05-18T07:25:03.213Z,15.52
2023-05-18T07:27:29.591Z,8.98
2023-05-18T07:29:56.053Z,12.68
2023-05-18T07:32:22.559Z,9.40
2023-05-18T07:34:48.925Z,12.02
2023-05-18T07:37:15.619Z,8.82
2023-05-18T07:39:42.053Z,8.18
2023-05-18T07:42:09.193Z,8.52
2023-05-18T07:44:35.569Z,12.00
2023-05-18T07:47:02.143Z,11.23
2023-05-18T07:49:28.765Z,8.05
2023-05-18T07:51:55.157Z,11.13
2023-05-18T07:54:21.473Z,9.02
2023-05-18T07:56:47.836Z,10.73
2023-05-18T07:59:14.863Z,10.13
2023-05-18T08:01:44.212Z,9.07
2023-05-18T08:04:10.730Z,9.18
2023-05-18T08:06:37.321Z,8.20
2023-05-18T08:09:03.872Z,15.57
2023-05-18T08:11:30.312Z,7.93
2023-05-18T08:13:56.636Z,11.32
2023-05-18T08:16:23.650Z,7.35
2023-05-18T08:18:50.109Z,10.82
2023-05-18T08:21:16.858Z,10.23
2023-05-18T08:23:43.325Z,16.83
2023-05-18T08:26:13.842Z,8.73
2023-05-18T08:28:40.496Z,8.73
2023-05-18T08:31:07.192Z,10.32
2023-05-18T08:33:34.264Z,9.18
2023-05-18T08:36:00.647Z,7.72
2023-05-18T08:38:27.005Z,9.13
2023-05-18T08:41:02.277Z,8.88
2023-05-18T08:43:32.612Z,10.23
2023-05-18T08:46:04.748Z,11.13
2023-05-18T08:48:32.458Z,8.68
2023-05-18T08:51:01.507Z,9.38
2023-05-18T08:53:32.246Z,9.25
2023-05-18T08:55:59.844Z,11.32
2023-05-18T08:58:33.947Z,8.48
2023-05-18T09:01:00.551Z,9.23
2023-05-18T09:03:28.162Z,13.63
2023-05-18T09:05:56.495Z,9.55
2023-05-18T09:08:24.005Z,10.35
2023-05-18T09:10:51.335Z,11.27
2023-05-18T09:13:19.517Z,11.65
2023-05-18T09:15:46.240Z,6.40
2023-05-18T09:18:12.716Z,9.63
2023-05-18T09:20:39.215Z,10.52
2023-05-18T09:23:05.667Z,10.45
2023-05-18T09:25:34.416Z,8.13
2023-05-18T09:28:01.351Z,8.77
2023-05-18T09:30:27.733Z,15.60
2023-05-18T09:32:54.192Z,9.13
2023-05-18T09:35:22.079Z,7.80
2023-05-18T09:37:48.582Z,9.40
2023-05-18T09:40:15.952Z,9.35
2023-05-18T09:42:44.382Z,7.18
2023-05-18T09:45:19.325Z,9.25
2023-05-18T09:47:46.007Z,7.43
2023-05-18T09:50:12.401Z,7.70
2023-05-18T09:52:41.829Z,9.18
2023-05-18T09:55:09.680Z,9.07
2023-05-18T09:57:39.828Z,8.18
2023-05-18T10:00:10.282Z,8.90
2023-05-18T10:02:38.812Z,10.63
2023-05-18T10:05:06.412Z,8.55
2023-05-18T10:07:34.476Z,10.20
2023-05-18T10:10:02.948Z,12.63
2023-05-18T10:12:29.297Z,9.15
2023-05-18T10:14:55.675Z,8.40
2023-05-18T10:17:27.290Z,10.77
2023-05-18T10:19:56.631Z,8.10
2023-05-18T10:22:25.343Z,9.02
2023-05-18T10:24:52.136Z,9.50
2023-05-18T10:27:26.325Z,12.63
2023-05-18T10:29:53.976Z,11.23
2023-05-18T10:32:25.581Z,11.32
2023-05-18T10:34:54.191Z,9.50
2023-05-18T10:37:22.956Z,10.45
2023-05-18T10:39:51.167Z,10.95
2023-05-18T10:42:19.491Z,8.55
2023-05-18T10:44:47.564Z,8.32
2023-05-18T10:47:17.164Z,7.75
2023-05-18T10:49:46.235Z,10.25
2023-05-18T10:52:13.461Z,7.97
2023-05-18T10:54:40.670Z,11.82
2023-05-18T10:57:13.229Z,7.53
2023-05-18T10:59:42.972Z,9.75
2023-05-18T11:02:12.545Z,13.48
2023-05-18T11:04:39.712Z,9.98
2023-05-18T11:07:10.769Z,8.38
2023-05-18T11:09:41.117Z,8.60
2023-05-18T11:12:14.559Z,9.90
2023-05-18T11:14:49.280Z,8.00
2023-05-18T11:17:20.577Z,9.27
2023-05-18T11:20:16.534Z,7.82
2023-05-18T11:22:46.688Z,9.18
2023-05-18T11:25:43.270Z,7.50
2023-05-18T11:30:50.781Z,9.18
2023-05-18T11:33:23.554Z,8.23
2023-05-18T11:35:57.889Z,11.27
2023-05-18T11:38:41.981Z,8.68
2023-05-18T11:41:27.259Z,8.23
2023-05-18T11:44:07.834Z,7.50
2023-05-18T11:46:34.388Z,6.45
2023-05-18T11:49:03.487Z,8.10
2023-05-18T11:51:31.330Z,9.20
2023-05-18T11:53:58.127Z,8.95
2023-05-18T11:56:25.733Z,8.15
2023-05-18T11:59:13.341Z,6.28
2023-05-18T12:01:41.870Z,8.52
2023-05-18T12:04:09.486Z,7.70
2023-05-18T12:06:37.899Z,5.35
2023-05-18T12:09:05.052Z,6.18
2023-05-18T12:11:32.696Z,5.80
2023-05-18T12:14:00.667Z,9.68
2023-05-18T12:16:27.367Z,7.18
2023-05-18T12:18:53.850Z,6.90
2023-05-18T12:21:24.095Z,5.28
2023-05-18T12:23:57.497Z,8.23
2023-05-18T12:26:25.304Z,5.32
2023-05-18T12:28:52.656Z,7.00
2023-05-18T12:31:19.180Z,6.00
2023-05-18T12:33:45.580Z,6.07
2023-05-18T12:36:13.337Z,5.68
2023-05-18T12:38:39.997Z,6.50
2023-05-18T12:41:08.007Z,5.50
2023-05-18T12:43:34.693Z,5.25
2023-05-18T12:46:02.914Z,10.35
2023-05-18T12:48:35.720Z,9.57
2023-05-18T12:51:02.127Z,5.97
2023-05-18T12:53:41.342Z,6.70
2023-05-18T12:56:10.858Z,8.90
2023-05-18T12:58:38.361Z,6.80
2023-05-18T13:01:09.294Z,5.97
2023-05-18T13:03:39.680Z,5.70
2023-05-18T13:06:07.417Z,5.65
2023-05-18T13:08:35.019Z,5.93
2023-05-18T13:11:12.745Z,8.98
2023-05-18T13:13:59.207Z,6.53
2023-05-18T13:16:26.360Z,5.80
2023-05-18T13:18:56.560Z,5.75
2023-05-18T13:21:22.922Z,6.10
2023-05-18T13:23:49.240Z,5.35
2023-05-18T13:26:18.026Z,6.35
2023-05-18T13:28:46.269Z,5.55
2023-05-18T13:31:13.009Z,7.82
2023-05-18T13:33:40.250Z,7.80
2023-05-18T13:36:07.317Z,6.15
2023-05-18T13:38:36.406Z,10.02
2023-05-18T13:41:03.879Z,7.35
2023-05-18T13:43:30.399Z,8.02
2023-05-18T13:45:56.920Z,6.88
2023-05-18T13:48:23.892Z,6.30
2023-05-18T13:50:50.929Z,5.75
2023-05-18T13:53:17.378Z,7.38
2023-05-18T13:55:43.750Z,9.52
2023-05-18T13:58:10.168Z,4.95
2023-05-18T14:00:37.375Z,6.57
2023-05-18T14:03:04.089Z,9.23
2023-05-18T14:05:30.450Z,5.65
2023-05-18T14:07:57.444Z,9.30
2023-05-18T14:10:23.964Z,7.35
2023-05-18T14:12:50.336Z,8.95
2023-05-18T14:15:16.641Z,8.65
2023-05-18T14:17:43.728Z,8.18
2023-05-18T14:20:11.561Z,8.38
2023-05-18T14:22:38.300Z,8.23
2023-05-18T14:25:06.163Z,6.97
2023-05-18T14:27:32.612Z,8.18
2023-05-18T14:29:58.969Z,8.25
2023-05-18T14:32:25.412Z,8.80
2023-05-18T14:34:54.528Z,8.95
2023-05-18T14:37:21.189Z,5.93
2023-05-18T14:39:47.595Z,8.10
2023-05-18T14:42:14.606Z,7.35
2023-05-18T14:44:40.950Z,8.52
2023-05-18T14:47:07.421Z,8.32
2023-05-18T14:49:33.856Z,6.47
2023-05-18T14:52:00.266Z,7.45
2023-05-18T14:54:26.620Z,8.95
2023-05-18T14:56:52.981Z,5.35
2023-05-18T14:59:20.503Z,5.40
2023-05-18T15:01:46.918Z,6.07
2023-05-18T15:04:14.057Z,5.13
2023-05-18T15:06:40.820Z,4.55
2023-05-18T15:09:07.654Z,6.10
2023-05-18T15:11:34.027Z,5.43
2023-05-18T15:14:00.405Z,5.25
2023-05-18T15:16:27.512Z,4.38
2023-05-18T15:18:53.944Z,3.95
2023-05-18T15:21:20.358Z,3.80
2023-05-18T15:23:46.699Z,4.22
2023-05-18T15:26:13.086Z,5.60
2023-05-18T15:28:40.258Z,3.10
2023-05-18T15:31:06.589Z,4.88
2023-05-18T15:33:35.313Z,3.60
2023-05-18T15:36:01.690Z,5.85
2023-05-18T15:38:29.568Z,4.05
2023-05-18T15:40:56.073Z,9.50
2023-05-18T15:43:23.328Z,3.30
2023-05-18T15:45:50.357Z,4.32
2023-05-18T15:48:16.831Z,4.13
2023-05-18T15:50:44.307Z,5.80
2023-05-18T15:53:10.676Z,3.58
2023-05-18T15:55:37.010Z,4.95
2023-05-18T15:58:03.445Z,6.60
2023-05-18T16:00:31.645Z,3.42
2023-05-18T16:02:58.208Z,4.38
2023-05-18T16:05:24.688Z,6.78
2023-05-18T16:07:51.671Z,4.38
2023-05-18T16:10:18.162Z,3.90
2023-05-18T16:12:44.499Z,4.60
2023-05-18T16:15:11.173Z,3.88
2023-05-18T16:17:37.552Z,4.40
2023-05-18T16:20:04.483Z,2.65
2023-05-18T16:22:30.866Z,5.20
2023-05-18T16:24:58.163Z,3.85
2023-05-18T16:27:24.606Z,3.38
2023-05-18T16:29:51.091Z,3.67
2023-05-18T16:32:18.112Z,6.07
2023-05-18T16:34:44.423Z,6.20
2023-05-18T16:37:10.881Z,4.18
2023-05-18T16:39:37.239Z,3.45
2023-05-18T16:42:04.737Z,3.08
2023-05-18T16:44:32.217Z,3.47
2023-05-18T16:46:58.630Z,4.78
2023-05-18T16:49:25.063Z,5.05
2023-05-18T16:51:52.172Z,6.35
2023-05-18T16:54:24.507Z,3.15
2023-05-18T16:56:51.243Z,4.25
2023-05-18T16:59:19.623Z,3.90
2023-05-18T17:01:46.019Z,6.18
2023-05-18T17:04:12.748Z,3.28
2023-05-18T17:06:39.644Z,5.00
2023-05-18T17:09:06.634Z,3.45
2023-05-18T17:11:33.145Z,4.13
2023-05-18T17:14:00.764Z,5.07
2023-05-18T17:16:29.358Z,5.28
2023-05-18T17:18:56.797Z,5.07
2023-05-18T17:21:23.955Z,6.80
2023-05-18T17:23:50.382Z,4.60
2023-05-18T17:26:16.782Z,5.13
2023-05-18T17:28:43.138Z,4.90
2023-05-18T17:31:09.515Z,5.72
2023-05-18T17:33:36.501Z,4.10
2023-05-18T17:36:03.134Z,5.43
2023-05-18T17:38:29.448Z,7.85
2023-05-18T17:40:56.154Z,4.97
2023-05-18T17:43:22.481Z,4.70
2023-05-18T17:45:48.873Z,6.32
2023-05-18T17:48:15.398Z,5.22
2023-05-18T17:50:44.566Z,4.60
2023-05-18T17:53:11.012Z,3.70
2023-05-18T17:55:37.340Z,4.70
2023-05-18T17:58:03.906Z,6.80
2023-05-18T18:00:30.404Z,9.45
2023-05-18T18:02:56.971Z,6.18
2023-05-18T18:05:23.421Z,5.20
2023-05-18T18:07:50.482Z,10.50
2023-05-18T18:10:19.992Z,4.88
2023-05-18T18:12:46.358Z,5.05
2023-05-18T18:15:12.757Z,3.10
2023-05-18T18:17:39.169Z,4.13
2023-05-18T18:20:06.926Z,5.55
2023-05-18T18:22:36.137Z,4.03
2023-05-18T18:25:03.483Z,4.32
2023-05-18T18:27:29.866Z,5.10
2023-05-18T18:29:56.321Z,4.30
2023-05-18T18:32:22.703Z,4.07
2023-05-18T18:34:49.109Z,4.85
2023-05-18T18:37:15.447Z,4.00
2023-05-18T18:39:45.002Z,6.70
2023-05-18T18:42:12.024Z,5.60
2023-05-18T18:44:38.379Z,4.10
2023-05-18T18:47:05.030Z,5.30
2023-05-18T18:49:31.441Z,5.10
2023-05-18T18:51:58.239Z,6.00
2023-05-18T18:54:25.565Z,6.22
2023-05-18T18:56:52.060Z,5.05
2023-05-18T18:59:19.058Z,4.78
2023-05-18T19:01:45.720Z,4.43
2023-05-18T19:04:12.704Z,4.40
2023-05-18T19:06:39.087Z,3.47
2023-05-18T19:09:05.406Z,4.85
2023-05-18T19:11:31.814Z,4.30
2023-05-18T19:13:58.195Z,3.70
2023-05-18T19:16:25.824Z,6.65
2023-05-18T19:18:52.232Z,3.67
2023-05-18T19:21:18.835Z,4.28
2023-05-18T19:23:45.348Z,4.78
2023-05-18T19:26:11.939Z,3.97
2023-05-18T19:28:38.386Z,4.68
2023-05-18T19:31:04.846Z,7.18
2023-05-18T19:33:32.468Z,5.82
2023-05-18T19:35:59.006Z,6.43
2023-05-18T19:38:25.614Z,5.43
2023-05-18T19:40:51.984Z,7.60
2023-05-18T19:43:18.405Z,5.10
2023-05-18T19:45:45.199Z,5.95
2023-05-18T19:48:13.115Z,10.20
2023-05-18T19:50:40.230Z,5.10
2023-05-18T19:53:06.653Z,7.47
2023-05-18T19:55:33.173Z,7.32
2023-05-18T19:57:59.859Z,8.68
2023-05-18T20:00:26.897Z,5.63
2023-05-18T20:02:53.375Z,6.15
2023-05-18T20:05:19.879Z,5.65
2023-05-18T20:07:46.937Z,7.82
2023-05-18T20:10:13.478Z,4.57
2023-05-18T20:12:41.500Z,5.80
2023-05-18T20:15:08.936Z,6.05
2023-05-18T20:17:35.799Z,8.32
2023-05-18T20:20:03.847Z,6.32
2023-05-18T20:22:30.368Z,5.90
2023-05-18T20:25:00.426Z,5.57
2023-05-18T20:27:27.398Z,5.20
2023-05-18T20:29:55.225Z,7.00
2023-05-18T20:32:21.697Z,4.05
2023-05-18T20:34:48.170Z,4.55
2023-05-18T20:37:18.709Z,4.80
2023-05-18T20:39:49.647Z,3.75
2023-05-18T20:42:20.946Z,5.68
2023-05-18T20:44:47.490Z,5.47
2023-05-18T20:47:19.452Z,5.82
2023-05-18T20:49:46.269Z,7.28
2023-05-18T20:52:12.764Z,3.60
2023-05-18T20:54:39.226Z,4.63
2023-05-18T20:57:05.632Z,5.05
2023-05-18T20:59:32.688Z,5.72
2023-05-18T21:01:59.335Z,5.75
2023-05-18T21:04:25.807Z,5.13
2023-05-18T21:06:52.235Z,4.50
2023-05-18T21:09:18.840Z,5.78
2023-05-18T21:11:45.191Z,4.70
2023-05-18T21:14:11.735Z,4.82
2023-05-18T21:16:38.827Z,5.25
2023-05-18T21:19:05.281Z,5.80
2023-05-18T21:21:31.682Z,6.15
2023-05-18T21:23:58.056Z,6.05
2023-05-18T21:26:25.731Z,6.28
2023-05-18T21:28:52.573Z,8.38
2023-05-18T21:31:19.042Z,5.18
2023-05-18T21:33:47.402Z,6.47
2023-05-18T21:36:18.914Z,7.38
2023-05-18T21:38:45.280Z,7.28
2023-05-18T21:41:11.662Z,6.47
2023-05-18T21:43:37.993Z,7.85
2023-05-18T21:46:05.130Z,7.43
2023-05-18T21:48:32.237Z,9.35
2023-05-18T21:50:59.288Z,7.05
2023-05-18T21:53:25.682Z,7.55
2023-05-18T21:55:52.127Z,9.63
2023-05-18T21:58:18.598Z,8.95
2023-05-18T22:00:45.017Z,6.78
2023-05-18T22:03:11.374Z,8.88
2023-05-18T22:05:37.789Z,8.38
2023-05-18T22:08:05.083Z,7.00
2023-05-18T22:10:32.007Z,9.38
2023-05-18T22:12:58.586Z,9.23
2023-05-18T22:15:24.941Z,8.88
2023-05-18T22:17:53.202Z,9.88
2023-05-18T22:20:20.758Z,10.05
2023-05-18T22:22:47.209Z,12.50
2023-05-18T22:25:14.295Z,10.18
2023-05-18T22:27:40.670Z,11.57
2023-05-18T22:30:08.155Z,10.52
2023-05-18T22:32:34.663Z,10.73
2023-05-18T22:35:01.268Z,7.22
2023-05-18T22:37:27.615Z,8.18
2023-05-18T22:39:54.156Z,8.43
2023-05-18T22:42:21.379Z,10.05
2023-05-18T22:44:54.129Z,6.82
2023-05-18T22:47:22.854Z,12.02
2023-05-18T22:49:49.415Z,12.82
2023-05-18T23:00:23.905Z,13.02
2023-05-18T23:02:52.161Z,12.50
2023-05-18T23:05:24.421Z,13.15
2023-05-18T23:07:51.469Z,8.70
2023-05-18T23:10:18.045Z,14.10
2023-05-18T23:12:45.576Z,13.18
2023-05-18T23:15:16.406Z,13.50
2023-05-18T23:17:42.776Z,9.57
2023-05-18T23:20:10.745Z,10.90
2023-05-18T23:22:37.119Z,13.57
2023-05-18T23:25:07.721Z,14.85
2023-05-18T23:27:34.320Z,13.30
2023-05-18T23:30:00.750Z,14.10
2023-05-18T23:32:28.689Z,13.30
2023-05-18T23:34:58.816Z,13.68
2023-05-18T23:37:25.833Z,14.38
2023-05-18T23:39:52.749Z,12.80
2023-05-18T23:42:20.216Z,15.32
2023-05-18T23:44:47.589Z,16.42
2023-05-18T23:47:15.418Z,16.55
2023-05-18T23:49:42.971Z,9.52
2023-05-18T23:52:10.311Z,13.10
2023-05-18T23:54:37.382Z,14.40
2023-05-18T23:57:04.329Z,17.15
2023-05-18T23:59:34.038Z,12.73
